Portada
METAR-TAF:

METAR-TAF

Aeropuertos :

Valence, Francia

latitud: 44-54-58N, longitud: 4-58-06E, altitud: 160 m

Observación

El informe se hizo hace 10 horas y 33 minutos, a las 18:00 UTC
Viento 5 kt del norte
Temperatura 23°C
Humedad 73%
Presión 1012 hPa
Visibilidad 10 km o más
Cielo nuboso a una altura de 9000 ft
Cielo nuboso a una altura de 11000 ft
Cielo nuboso a una altura de 24000 ft

METAR: LFLU 201800Z AUTO 36005KT 9999 BKN090 BKN110 BKN240 23/18 Q1012

Hora: 06:33 (04:33 UTC)


TAF: falta

Observaciones y pronósticos meteorológicos de más de 4000 aeropuertos (mensajes METAR y TAF).

Los puntos amarillos y rojos representan las estaciones disponibles.

Ponga el ratón en el punto deseado para ver el nombre de la estación.

Haga clic para ver las observaciones y los pronósticos meteorológicos.

Para cambiar el mapa : haga clic en los botones verdes con una cruz de color negro para hacer un zoom, en el botón verde con un guión para alejar o en las flechas verdes para mapas adyacentes.


METAR-TAF: